Georgetown, Indiana
Current Conditions -  °F | °C
As of 10:56 AM on Friday 21 Nov 2014 (Local Time) from KSDF Reporting Station
Clear Clear  
Wind Chill: 27°   Ceiling: Unl
Heat Index: 32°   Visibility: 10mi
Dew Point: 13°   Wind: 5mph
Humidity: 45%   Direction: 100°E
Pressure: 30.52"   Gusts: NA
Location:  38.29°N, 85.98°W
Report Text: KSDF 211556Z 10004KT 10SM CLR 00/M11 A3052 RMK AO2 SLP340 T00001106
Loading
Personal Weather Stations






























Interactive Weather Map New forecast layout! Learn more

10-Day Weather Forecast

Advertisements
Track Severe Weather on mobile